sensor_id;sensor_type;location;lat;lon;timestamp;pressure;altitude;pressure_sealevel;temperature;humidity
33554;BME280;19885;42.208;24.952;2023-02-28T00:00:35;100383.06;;;10.28;77.99
33554;BME280;19885;42.208;24.952;2023-02-28T00:03:01;100326.88;;;9.43;78.98
33554;BME280;19885;42.208;24.952;2023-02-28T00:05:28;100388.59;;;9.98;80.24
33554;BME280;19885;42.208;24.952;2023-02-28T00:07:54;100413.59;;;9.45;83.27
33554;BME280;19885;42.208;24.952;2023-02-28T00:10:25;100388.75;;;9.59;85.04
33554;BME280;19885;42.208;24.952;2023-02-28T00:12:53;100419.50;;;9.81;84.95
33554;BME280;19885;42.208;24.952;2023-02-28T00:15:19;100418.50;;;9.72;89.92
33554;BME280;19885;42.208;24.952;2023-02-28T00:17:51;100403.78;;;9.75;88.68
33554;BME280;19885;42.208;24.952;2023-02-28T00:20:17;100422.00;;;9.75;87.47
33554;BME280;19885;42.208;24.952;2023-02-28T00:22:47;100410.28;;;9.97;87.06
33554;BME280;19885;42.208;24.952;2023-02-28T00:25:16;100415.19;;;10.30;84.74
33554;BME280;19885;42.208;24.952;2023-02-28T00:27:46;100404.78;;;10.30;83.59
33554;BME280;19885;42.208;24.952;2023-02-28T00:30:21;100406.13;;;10.59;82.43
33554;BME280;19885;42.208;24.952;2023-02-28T00:32:47;100415.75;;;10.63;82.58
33554;BME280;19885;42.208;24.952;2023-02-28T00:35:12;100410.69;;;10.73;82.00
33554;BME280;19885;42.208;24.952;2023-02-28T00:37:39;100413.38;;;10.78;81.22
33554;BME280;19885;42.208;24.952;2023-02-28T00:40:06;100411.31;;;10.59;81.20
33554;BME280;19885;42.208;24.952;2023-02-28T00:42:33;100413.50;;;10.32;82.53
33554;BME280;19885;42.208;24.952;2023-02-28T00:44:59;100417.06;;;10.37;83.79
33554;BME280;19885;42.208;24.952;2023-02-28T00:47:25;100403.56;;;10.62;83.54
33554;BME280;19885;42.208;24.952;2023-02-28T00:49:53;100396.66;;;10.64;82.35
33554;BME280;19885;42.208;24.952;2023-02-28T00:52:21;100414.44;;;10.35;84.03
33554;BME280;19885;42.208;24.952;2023-02-28T00:54:47;100420.19;;;10.18;84.56
33554;BME280;19885;42.208;24.952;2023-02-28T00:57:13;100420.94;;;10.11;86.14
33554;BME280;19885;42.208;24.952;2023-02-28T00:59:38;100418.28;;;10.09;87.77
33554;BME280;19885;42.208;24.952;2023-02-28T01:02:04;100413.28;;;10.18;88.43
33554;BME280;19885;42.208;24.952;2023-02-28T01:04:30;100400.03;;;10.07;89.70
33554;BME280;19885;42.208;24.952;2023-02-28T01:06:55;100408.69;;;10.06;89.74
33554;BME280;19885;42.208;24.952;2023-02-28T01:09:24;100406.09;;;10.06;89.77
33554;BME280;19885;42.208;24.952;2023-02-28T01:11:49;100424.22;;;10.02;90.33
33554;BME280;19885;42.208;24.952;2023-02-28T01:14:16;100433.66;;;9.95;92.38
33554;BME280;19885;42.208;24.952;2023-02-28T01:16:43;100429.41;;;9.99;92.45
33554;BME280;19885;42.208;24.952;2023-02-28T01:19:12;100436.47;;;10.06;92.40
33554;BME280;19885;42.208;24.952;2023-02-28T01:21:40;100436.50;;;10.09;92.13
33554;BME280;19885;42.208;24.952;2023-02-28T01:24:06;100453.13;;;10.13;92.42
33554;BME280;19885;42.208;24.952;2023-02-28T01:26:32;100467.13;;;10.21;93.16
33554;BME280;19885;42.208;24.952;2023-02-28T01:28:58;100461.19;;;10.26;92.26
33554;BME280;19885;42.208;24.952;2023-02-28T01:31:24;100462.25;;;10.39;92.33
33554;BME280;19885;42.208;24.952;2023-02-28T01:33:50;100451.88;;;10.40;92.47
33554;BME280;19885;42.208;24.952;2023-02-28T01:36:23;100451.88;;;10.42;92.58
33554;BME280;19885;42.208;24.952;2023-02-28T01:38:50;100443.91;;;10.33;93.92
33554;BME280;19885;42.208;24.952;2023-02-28T01:41:25;100463.19;;;10.42;93.53
33554;BME280;19885;42.208;24.952;2023-02-28T01:46:18;100474.78;;;10.61;93.28
33554;BME280;19885;42.208;24.952;2023-02-28T01:51:22;100478.91;;;10.48;94.01
33554;BME280;19885;42.208;24.952;2023-02-28T01:53:53;100491.97;;;10.50;94.75
33554;BME280;19885;42.208;24.952;2023-02-28T01:56:23;100491.88;;;10.45;94.71
33554;BME280;19885;42.208;24.952;2023-02-28T01:58:52;100458.22;;;10.10;96.30
33554;BME280;19885;42.208;24.952;2023-02-28T02:01:25;100508.31;;;10.41;96.59
33554;BME280;19885;42.208;24.952;2023-02-28T02:03:57;100487.47;;;10.41;96.05
33554;BME280;19885;42.208;24.952;2023-02-28T02:06:37;100490.97;;;10.42;97.31
33554;BME280;19885;42.208;24.952;2023-02-28T02:09:07;100474.38;;;10.38;96.27
33554;BME280;19885;42.208;24.952;2023-02-28T02:11:34;100507.66;;;10.51;96.40
33554;BME280;19885;42.208;24.952;2023-02-28T02:14:46;100499.09;;;10.60;95.47
33554;BME280;19885;42.208;24.952;2023-02-28T02:17:20;100503.53;;;10.65;95.65
33554;BME280;19885;42.208;24.952;2023-02-28T02:28:04;100484.28;;;10.57;94.50
33554;BME280;19885;42.208;24.952;2023-02-28T02:33:41;100497.19;;;10.50;94.76
33554;BME280;19885;42.208;24.952;2023-02-28T02:36:27;100507.72;;;10.56;95.33
33554;BME280;19885;42.208;24.952;2023-02-28T02:47:13;100509.63;;;10.66;93.00
33554;BME280;19885;42.208;24.952;2023-02-28T02:49:43;100506.19;;;10.68;92.64
33554;BME280;19885;42.208;24.952;2023-02-28T02:52:13;100502.44;;;10.53;93.41
33554;BME280;19885;42.208;24.952;2023-02-28T02:54:45;100506.03;;;10.58;92.35
33554;BME280;19885;42.208;24.952;2023-02-28T02:57:17;100518.31;;;10.65;92.06
33554;BME280;19885;42.208;24.952;2023-02-28T02:59:47;100515.78;;;10.69;91.70
33554;BME280;19885;42.208;24.952;2023-02-28T03:02:16;100536.19;;;10.45;93.29
33554;BME280;19885;42.208;24.952;2023-02-28T03:04:46;100520.22;;;10.27;93.17
33554;BME280;19885;42.208;24.952;2023-02-28T03:07:14;100548.09;;;10.31;93.17
33554;BME280;19885;42.208;24.952;2023-02-28T03:09:40;100540.97;;;10.23;93.15
33554;BME280;19885;42.208;24.952;2023-02-28T03:12:12;100550.56;;;10.25;92.25
33554;BME280;19885;42.208;24.952;2023-02-28T03:14:56;100561.00;;;10.25;92.42
33554;BME280;19885;42.208;24.952;2023-02-28T03:20:27;100566.00;;;10.15;93.35
33554;BME280;19885;42.208;24.952;2023-02-28T03:23:07;100571.03;;;10.08;93.07
33554;BME280;19885;42.208;24.952;2023-02-28T03:31:03;100565.66;;;9.99;93.01
33554;BME280;19885;42.208;24.952;2023-02-28T03:34:29;100575.22;;;9.99;93.18
33554;BME280;19885;42.208;24.952;2023-02-28T03:36:51;100575.25;;;10.02;92.71
33554;BME280;19885;42.208;24.952;2023-02-28T03:39:28;100577.75;;;9.96;92.96
33554;BME280;19885;42.208;24.952;2023-02-28T03:42:01;100582.13;;;9.98;92.47
33554;BME280;19885;42.208;24.952;2023-02-28T03:44:36;100566.34;;;9.91;92.86
33554;BME280;19885;42.208;24.952;2023-02-28T03:47:27;100570.44;;;9.78;93.68
33554;BME280;19885;42.208;24.952;2023-02-28T03:50:13;100585.25;;;9.81;93.28
33554;BME280;19885;42.208;24.952;2023-02-28T03:52:49;100583.88;;;9.99;92.26
33554;BME280;19885;42.208;24.952;2023-02-28T03:55:16;100602.47;;;10.15;91.49
33554;BME280;19885;42.208;24.952;2023-02-28T03:57:54;100597.25;;;10.15;91.01
33554;BME280;19885;42.208;24.952;2023-02-28T04:00:38;100584.75;;;9.98;90.92
33554;BME280;19885;42.208;24.952;2023-02-28T04:03:11;100594.34;;;10.01;90.95
33554;BME280;19885;42.208;24.952;2023-02-28T04:05:54;100596.34;;;10.13;90.19
33554;BME280;19885;42.208;24.952;2023-02-28T04:08:23;100586.66;;;10.08;89.04
33554;BME280;19885;42.208;24.952;2023-02-28T04:11:02;100602.97;;;10.00;90.68
33554;BME280;19885;42.208;24.952;2023-02-28T04:13:30;100612.31;;;9.90;90.79
33554;BME280;19885;42.208;24.952;2023-02-28T04:16:02;100603.47;;;9.82;91.49
33554;BME280;19885;42.208;24.952;2023-02-28T04:18:38;100618.09;;;9.76;91.25
33554;BME280;19885;42.208;24.952;2023-02-28T04:21:04;100621.00;;;9.89;90.74
33554;BME280;19885;42.208;24.952;2023-02-28T04:23:30;100628.41;;;9.73;91.35
33554;BME280;19885;42.208;24.952;2023-02-28T04:25:56;100618.50;;;9.94;90.74
33554;BME280;19885;42.208;24.952;2023-02-28T04:28:22;100629.59;;;9.85;90.74
33554;BME280;19885;42.208;24.952;2023-02-28T04:30:54;100609.56;;;9.83;90.83
33554;BME280;19885;42.208;24.952;2023-02-28T04:33:20;100619.69;;;10.10;90.87
33554;BME280;19885;42.208;24.952;2023-02-28T04:35:46;100623.50;;;10.24;89.17
33554;BME280;19885;42.208;24.952;2023-02-28T04:38:12;100620.91;;;10.25;88.25
33554;BME280;19885;42.208;24.952;2023-02-28T04:40:37;100611.03;;;10.11;87.98
33554;BME280;19885;42.208;24.952;2023-02-28T04:43:03;100623.59;;;10.28;87.84
33554;BME280;19885;42.208;24.952;2023-02-28T04:45:29;100602.38;;;10.12;87.52
33554;BME280;19885;42.208;24.952;2023-02-28T04:47:57;100612.19;;;10.23;88.20
33554;BME280;19885;42.208;24.952;2023-02-28T04:50:23;100620.19;;;10.34;87.82
33554;BME280;19885;42.208;24.952;2023-02-28T04:52:49;100609.06;;;10.00;87.88
33554;BME280;19885;42.208;24.952;2023-02-28T04:55:15;100624.50;;;9.91;89.22
33554;BME280;19885;42.208;24.952;2023-02-28T04:57:40;100620.47;;;9.65;89.88
33554;BME280;19885;42.208;24.952;2023-02-28T05:00:09;100640.44;;;9.68;90.93
33554;BME280;19885;42.208;24.952;2023-02-28T05:02:37;100642.69;;;9.51;91.82
33554;BME280;19885;42.208;24.952;2023-02-28T05:05:04;100646.06;;;9.47;92.02
33554;BME280;19885;42.208;24.952;2023-02-28T05:07:30;100650.28;;;9.42;92.05
33554;BME280;19885;42.208;24.952;2023-02-28T05:09:56;100639.47;;;9.27;92.79
33554;BME280;19885;42.208;24.952;2023-02-28T05:12:22;100659.47;;;9.29;92.83
33554;BME280;19885;42.208;24.952;2023-02-28T05:14:48;100629.53;;;9.11;92.75
33554;BME280;19885;42.208;24.952;2023-02-28T05:17:13;100643.81;;;9.26;92.70
33554;BME280;19885;42.208;24.952;2023-02-28T05:19:39;100657.69;;;9.27;92.43
33554;BME280;19885;42.208;24.952;2023-02-28T05:22:10;100655.94;;;9.26;93.15
33554;BME280;19885;42.208;24.952;2023-02-28T05:24:37;100663.78;;;9.27;92.75
33554;BME280;19885;42.208;24.952;2023-02-28T05:27:03;100669.78;;;9.25;92.94
33554;BME280;19885;42.208;24.952;2023-02-28T05:29:28;100672.31;;;9.22;92.93
33554;BME280;19885;42.208;24.952;2023-02-28T05:31:55;100663.84;;;9.29;92.81
33554;BME280;19885;42.208;24.952;2023-02-28T05:34:20;100684.81;;;9.37;92.29
33554;BME280;19885;42.208;24.952;2023-02-28T05:36:46;100688.97;;;9.30;92.19
33554;BME280;19885;42.208;24.952;2023-02-28T05:39:12;100687.38;;;9.35;92.56
33554;BME280;19885;42.208;24.952;2023-02-28T05:41:39;100692.16;;;9.53;91.10
33554;BME280;19885;42.208;24.952;2023-02-28T05:44:05;100668.50;;;9.44;91.84
33554;BME280;19885;42.208;24.952;2023-02-28T05:46:31;100682.63;;;9.53;90.66
33554;BME280;19885;42.208;24.952;2023-02-28T05:48:56;100691.56;;;9.64;90.85
33554;BME280;19885;42.208;24.952;2023-02-28T05:51:25;100695.16;;;9.69;90.67
33554;BME280;19885;42.208;24.952;2023-02-28T05:53:51;100700.19;;;9.63;90.59
33554;BME280;19885;42.208;24.952;2023-02-28T05:56:16;100702.31;;;9.79;90.48
33554;BME280;19885;42.208;24.952;2023-02-28T05:58:42;100701.34;;;9.74;89.61
33554;BME280;19885;42.208;24.952;2023-02-28T06:01:31;100710.31;;;9.87;90.25
33554;BME280;19885;42.208;24.952;2023-02-28T06:03:59;100704.91;;;9.78;89.68
33554;BME280;19885;42.208;24.952;2023-02-28T06:06:25;100717.09;;;9.80;89.81
33554;BME280;19885;42.208;24.952;2023-02-28T06:08:51;100710.00;;;9.75;89.71
33554;BME280;19885;42.208;24.952;2023-02-28T06:11:17;100720.22;;;9.66;90.71
33554;BME280;19885;42.208;24.952;2023-02-28T06:13:45;100711.28;;;9.55;90.33
33554;BME280;19885;42.208;24.952;2023-02-28T06:16:11;100723.88;;;9.38;90.90
33554;BME280;19885;42.208;24.952;2023-02-28T06:18:37;100723.03;;;9.39;92.09
33554;BME280;19885;42.208;24.952;2023-02-28T06:21:03;100719.66;;;9.43;91.50
33554;BME280;19885;42.208;24.952;2023-02-28T06:23:29;100716.22;;;9.44;91.93
33554;BME280;19885;42.208;24.952;2023-02-28T06:25:55;100726.53;;;9.41;92.61
33554;BME280;19885;42.208;24.952;2023-02-28T06:28:24;100740.97;;;9.63;91.17
33554;BME280;19885;42.208;24.952;2023-02-28T06:30:51;100740.53;;;9.46;92.01
33554;BME280;19885;42.208;24.952;2023-02-28T06:33:16;100747.41;;;9.43;92.40
33554;BME280;19885;42.208;24.952;2023-02-28T06:35:47;100732.81;;;9.49;91.77
33554;BME280;19885;42.208;24.952;2023-02-28T06:38:13;100735.09;;;9.36;92.22
33554;BME280;19885;42.208;24.952;2023-02-28T06:40:39;100738.72;;;9.42;92.33
33554;BME280;19885;42.208;24.952;2023-02-28T06:43:05;100743.06;;;9.43;91.51
33554;BME280;19885;42.208;24.952;2023-02-28T06:45:31;100724.63;;;9.34;92.46
33554;BME280;19885;42.208;24.952;2023-02-28T06:47:57;100735.91;;;9.34;92.65
33554;BME280;19885;42.208;24.952;2023-02-28T06:50:23;100734.84;;;9.26;92.04
33554;BME280;19885;42.208;24.952;2023-02-28T06:52:49;100743.69;;;9.33;92.23
33554;BME280;19885;42.208;24.952;2023-02-28T06:55:19;100741.91;;;9.32;92.78
33554;BME280;19885;42.208;24.952;2023-02-28T06:57:47;100751.41;;;9.30;92.47
33554;BME280;19885;42.208;24.952;2023-02-28T07:00:13;100740.66;;;9.18;92.81
33554;BME280;19885;42.208;24.952;2023-02-28T07:02:39;100748.56;;;9.21;92.76
33554;BME280;19885;42.208;24.952;2023-02-28T07:05:06;100745.25;;;9.26;91.99
33554;BME280;19885;42.208;24.952;2023-02-28T07:07:32;100755.09;;;9.38;91.85
33554;BME280;19885;42.208;24.952;2023-02-28T07:09:58;100735.75;;;9.28;92.13
33554;BME280;19885;42.208;24.952;2023-02-28T07:12:23;100758.91;;;9.52;91.61
33554;BME280;19885;42.208;24.952;2023-02-28T07:14:49;100766.34;;;9.71;91.43
33554;BME280;19885;42.208;24.952;2023-02-28T07:17:18;100767.72;;;9.93;89.94
33554;BME280;19885;42.208;24.952;2023-02-28T07:19:44;100758.31;;;9.62;90.55
33554;BME280;19885;42.208;24.952;2023-02-28T07:22:09;100753.31;;;9.71;90.49
33554;BME280;19885;42.208;24.952;2023-02-28T07:24:35;100751.31;;;9.61;90.61
33554;BME280;19885;42.208;24.952;2023-02-28T07:27:01;100768.81;;;9.65;91.04
33554;BME280;19885;42.208;24.952;2023-02-28T07:29:29;100748.16;;;9.73;90.02
33554;BME280;19885;42.208;24.952;2023-02-28T07:31:56;100773.59;;;9.84;90.28
33554;BME280;19885;42.208;24.952;2023-02-28T07:34:22;100772.19;;;9.97;88.87
33554;BME280;19885;42.208;24.952;2023-02-28T07:36:47;100774.16;;;10.08;88.19
33554;BME280;19885;42.208;24.952;2023-02-28T07:39:13;100770.09;;;10.18;87.11
33554;BME280;19885;42.208;24.952;2023-02-28T07:41:39;100780.56;;;9.85;88.83
33554;BME280;19885;42.208;24.952;2023-02-28T07:44:10;100777.34;;;9.61;89.75
33554;BME280;19885;42.208;24.952;2023-02-28T07:46:38;100785.69;;;9.48;90.61
33554;BME280;19885;42.208;24.952;2023-02-28T07:49:04;100785.91;;;9.56;90.03
33554;BME280;19885;42.208;24.952;2023-02-28T07:51:30;100788.75;;;9.66;90.32
33554;BME280;19885;42.208;24.952;2023-02-28T07:53:56;100794.28;;;9.78;88.73
33554;BME280;19885;42.208;24.952;2023-02-28T07:56:24;100793.00;;;9.97;88.56
33554;BME280;19885;42.208;24.952;2023-02-28T07:58:50;100787.47;;;9.83;88.54
33554;BME280;19885;42.208;24.952;2023-02-28T08:01:16;100782.19;;;9.82;89.27
33554;BME280;19885;42.208;24.952;2023-02-28T08:03:44;100780.19;;;9.70;89.32
33554;BME280;19885;42.208;24.952;2023-02-28T08:06:17;100779.88;;;9.58;90.29
33554;BME280;19885;42.208;24.952;2023-02-28T08:08:43;100784.88;;;9.51;91.14
33554;BME280;19885;42.208;24.952;2023-02-28T08:11:09;100775.91;;;9.38;91.57
33554;BME280;19885;42.208;24.952;2023-02-28T08:13:35;100786.66;;;9.52;91.21
33554;BME280;19885;42.208;24.952;2023-02-28T08:16:02;100788.38;;;9.51;90.89
33554;BME280;19885;42.208;24.952;2023-02-28T08:18:28;100793.88;;;9.63;91.35
33554;BME280;19885;42.208;24.952;2023-02-28T08:20:53;100789.41;;;9.58;90.86
33554;BME280;19885;42.208;24.952;2023-02-28T08:23:19;100789.56;;;9.64;91.02
33554;BME280;19885;42.208;24.952;2023-02-28T08:25:44;100786.81;;;9.58;91.87
33554;BME280;19885;42.208;24.952;2023-02-28T08:28:10;100770.28;;;9.56;91.87
33554;BME280;19885;42.208;24.952;2023-02-28T08:30:39;100785.13;;;9.94;91.08
33554;BME280;19885;42.208;24.952;2023-02-28T08:33:06;100781.88;;;9.68;90.59
33554;BME280;19885;42.208;24.952;2023-02-28T08:35:31;100775.75;;;9.66;92.05
33554;BME280;19885;42.208;24.952;2023-02-28T08:37:57;100775.91;;;10.08;90.08
33554;BME280;19885;42.208;24.952;2023-02-28T08:40:23;100788.53;;;9.91;90.62
33554;BME280;19885;42.208;24.952;2023-02-28T08:42:52;100786.28;;;9.71;91.67
33554;BME280;19885;42.208;24.952;2023-02-28T08:45:18;100789.97;;;9.79;91.18
33554;BME280;19885;42.208;24.952;2023-02-28T08:47:43;100789.88;;;9.76;90.46
33554;BME280;19885;42.208;24.952;2023-02-28T08:50:09;100781.97;;;9.73;91.40
33554;BME280;19885;42.208;24.952;2023-02-28T08:52:35;100798.56;;;9.42;92.50
33554;BME280;19885;42.208;24.952;2023-02-28T08:55:01;100797.00;;;9.50;92.72
33554;BME280;19885;42.208;24.952;2023-02-28T08:57:26;100805.69;;;9.49;92.51
33554;BME280;19885;42.208;24.952;2023-02-28T08:59:52;100798.31;;;9.33;92.52
33554;BME280;19885;42.208;24.952;2023-02-28T09:02:18;100808.31;;;9.51;93.20
33554;BME280;19885;42.208;24.952;2023-02-28T09:04:45;100796.00;;;9.45;92.55
33554;BME280;19885;42.208;24.952;2023-02-28T09:07:11;100809.06;;;9.47;92.35
33554;BME280;19885;42.208;24.952;2023-02-28T09:09:37;100799.22;;;9.35;92.99
33554;BME280;19885;42.208;24.952;2023-02-28T09:12:03;100809.13;;;9.50;92.71
33554;BME280;19885;42.208;24.952;2023-02-28T09:14:30;100812.84;;;9.59;92.87
33554;BME280;19885;42.208;24.952;2023-02-28T09:16:59;100812.81;;;9.56;92.96
33554;BME280;19885;42.208;24.952;2023-02-28T09:19:25;100800.72;;;9.58;93.44
33554;BME280;19885;42.208;24.952;2023-02-28T09:21:51;100795.38;;;9.54;92.87
33554;BME280;19885;42.208;24.952;2023-02-28T09:24:17;100786.38;;;9.75;92.50
33554;BME280;19885;42.208;24.952;2023-02-28T09:26:47;100781.47;;;10.22;90.92
33554;BME280;19885;42.208;24.952;2023-02-28T09:29:13;100775.34;;;10.58;88.81
33554;BME280;19885;42.208;24.952;2023-02-28T09:31:42;100785.31;;;10.39;88.98
33554;BME280;19885;42.208;24.952;2023-02-28T09:34:07;100787.97;;;10.04;90.88
33554;BME280;19885;42.208;24.952;2023-02-28T09:36:33;100781.81;;;10.01;90.94
33554;BME280;19885;42.208;24.952;2023-02-28T09:39:00;100784.88;;;9.83;91.46
33554;BME280;19885;42.208;24.952;2023-02-28T09:41:27;100785.78;;;9.85;92.10
33554;BME280;19885;42.208;24.952;2023-02-28T09:43:59;100774.34;;;10.15;91.99
33554;BME280;19885;42.208;24.952;2023-02-28T09:46:34;100762.66;;;10.35;90.22
33554;BME280;19885;42.208;24.952;2023-02-28T09:49:06;100768.53;;;10.65;89.05
33554;BME280;19885;42.208;24.952;2023-02-28T09:54:02;100775.78;;;10.39;89.16
33554;BME280;19885;42.208;24.952;2023-02-28T09:56:33;100764.50;;;10.03;90.53
33554;BME280;19885;42.208;24.952;2023-02-28T09:59:04;100712.72;;;9.79;90.98
33554;BME280;19885;42.208;24.952;2023-02-28T10:01:51;100764.97;;;10.23;89.11
33554;BME280;19885;42.208;24.952;2023-02-28T10:04:40;100762.78;;;10.03;90.43
33554;BME280;19885;42.208;24.952;2023-02-28T10:09:47;100707.09;;;9.61;91.30
33554;BME280;19885;42.208;24.952;2023-02-28T10:12:16;100752.09;;;10.29;89.92
33554;BME280;19885;42.208;24.952;2023-02-28T10:14:45;100743.03;;;10.12;90.44
33554;BME280;19885;42.208;24.952;2023-02-28T10:17:21;100744.59;;;10.05;91.33
33554;BME280;19885;42.208;24.952;2023-02-28T10:22:33;100745.38;;;10.01;91.09
33554;BME280;19885;42.208;24.952;2023-02-28T10:25:15;100738.88;;;10.20;90.94
33554;BME280;19885;42.208;24.952;2023-02-28T10:27:41;100733.47;;;10.51;90.56
33554;BME280;19885;42.208;24.952;2023-02-28T10:30:10;100723.22;;;10.58;89.25
33554;BME280;19885;42.208;24.952;2023-02-28T10:32:38;100735.88;;;10.84;88.18
33554;BME280;19885;42.208;24.952;2023-02-28T10:35:10;100727.22;;;10.86;86.16
33554;BME280;19885;42.208;24.952;2023-02-28T10:37:41;100684.69;;;10.44;87.33
33554;BME280;19885;42.208;24.952;2023-02-28T10:40:32;100724.50;;;10.79;87.92
33554;BME280;19885;42.208;24.952;2023-02-28T10:43:05;100728.34;;;10.55;88.89
33554;BME280;19885;42.208;24.952;2023-02-28T10:48:37;100725.94;;;10.64;88.10
33554;BME280;19885;42.208;24.952;2023-02-28T10:51:05;100713.97;;;10.34;88.35
33554;BME280;19885;42.208;24.952;2023-02-28T10:53:32;100717.47;;;10.33;88.74
33554;BME280;19885;42.208;24.952;2023-02-28T10:59:22;100716.16;;;10.14;89.59
33554;BME280;19885;42.208;24.952;2023-02-28T11:01:52;100708.03;;;10.00;90.47
33554;BME280;19885;42.208;24.952;2023-02-28T11:07:10;100702.59;;;9.91;90.19
33554;BME280;19885;42.208;24.952;2023-02-28T11:09:46;100710.53;;;9.97;90.46
33554;BME280;19885;42.208;24.952;2023-02-28T11:12:38;100705.09;;;9.85;90.92
33554;BME280;19885;42.208;24.952;2023-02-28T11:15:18;100705.19;;;9.90;90.62
33554;BME280;19885;42.208;24.952;2023-02-28T11:17:56;100704.63;;;10.04;90.93
33554;BME280;19885;42.208;24.952;2023-02-28T11:20:28;100698.38;;;9.96;90.49
33554;BME280;19885;42.208;24.952;2023-02-28T11:23:01;100702.09;;;10.06;90.34
33554;BME280;19885;42.208;24.952;2023-02-28T11:25:32;100693.28;;;10.01;90.56
33554;BME280;19885;42.208;24.952;2023-02-28T11:28:00;100691.47;;;9.97;90.91
33554;BME280;19885;42.208;24.952;2023-02-28T11:30:45;100689.81;;;10.02;90.97
33554;BME280;19885;42.208;24.952;2023-02-28T11:33:44;100698.13;;;10.22;90.29
33554;BME280;19885;42.208;24.952;2023-02-28T11:36:22;100692.41;;;10.02;89.88
33554;BME280;19885;42.208;24.952;2023-02-28T11:38:54;100688.88;;;9.97;90.84
33554;BME280;19885;42.208;24.952;2023-02-28T11:53:05;100678.19;;;9.86;90.60
33554;BME280;19885;42.208;24.952;2023-02-28T11:55:39;100677.16;;;9.78;91.00
33554;BME280;19885;42.208;24.952;2023-02-28T12:06:52;100682.88;;;10.02;90.37
33554;BME280;19885;42.208;24.952;2023-02-28T12:27:42;100677.78;;;10.46;87.15
33554;BME280;19885;42.208;24.952;2023-02-28T12:30:33;100674.50;;;10.56;87.00
33554;BME280;19885;42.208;24.952;2023-02-28T12:33:12;100677.50;;;10.34;87.74
33554;BME280;19885;42.208;24.952;2023-02-28T12:35:59;100674.88;;;10.31;87.71
33554;BME280;19885;42.208;24.952;2023-02-28T12:38:31;100666.06;;;10.26;88.05
33554;BME280;19885;42.208;24.952;2023-02-28T12:41:04;100663.47;;;10.27;88.08
33554;BME280;19885;42.208;24.952;2023-02-28T12:43:37;100681.53;;;10.18;88.06
33554;BME280;19885;42.208;24.952;2023-02-28T12:46:35;100669.13;;;10.08;89.10
33554;BME280;19885;42.208;24.952;2023-02-28T12:49:27;100658.16;;;10.21;88.52
33554;BME280;19885;42.208;24.952;2023-02-28T12:51:56;100657.28;;;10.21;88.96
33554;BME280;19885;42.208;24.952;2023-02-28T12:57:18;100651.16;;;10.19;89.03
33554;BME280;19885;42.208;24.952;2023-02-28T12:59:56;100647.13;;;10.34;89.12
33554;BME280;19885;42.208;24.952;2023-02-28T13:11:06;100651.09;;;10.16;89.58
33554;BME280;19885;42.208;24.952;2023-02-28T13:13:32;100640.25;;;9.97;89.74
33554;BME280;19885;42.208;24.952;2023-02-28T13:16:06;100651.66;;;10.04;91.08
33554;BME280;19885;42.208;24.952;2023-02-28T13:21:21;100643.94;;;10.08;91.57
33554;BME280;19885;42.208;24.952;2023-02-28T13:29:20;100657.16;;;10.15;93.41
33554;BME280;19885;42.208;24.952;2023-02-28T13:34:49;100656.38;;;10.20;94.70
33554;BME280;19885;42.208;24.952;2023-02-28T13:37:35;100652.84;;;10.17;95.66
33554;BME280;19885;42.208;24.952;2023-02-28T13:40:29;100654.66;;;10.21;96.06
33554;BME280;19885;42.208;24.952;2023-02-28T13:42:56;100652.56;;;10.04;96.14
33554;BME280;19885;42.208;24.952;2023-02-28T13:45:23;100660.13;;;9.92;97.46
33554;BME280;19885;42.208;24.952;2023-02-28T13:48:03;100648.13;;;9.99;98.62
33554;BME280;19885;42.208;24.952;2023-02-28T13:50:33;100647.03;;;9.89;99.03
33554;BME280;19885;42.208;24.952;2023-02-28T14:06:55;100631.00;;;9.71;100.00
33554;BME280;19885;42.208;24.952;2023-02-28T14:11:55;100634.38;;;9.67;100.00
33554;BME280;19885;42.208;24.952;2023-02-28T14:17:15;100626.88;;;9.42;100.00
33554;BME280;19885;42.208;24.952;2023-02-28T14:19:45;100640.69;;;9.41;100.00
33554;BME280;19885;42.208;24.952;2023-02-28T14:22:47;100636.47;;;9.45;100.00
33554;BME280;19885;42.208;24.952;2023-02-28T14:36:32;100664.66;;;9.28;100.00
33554;BME280;19885;42.208;24.952;2023-02-28T14:39:16;100639.69;;;9.34;100.00
33554;BME280;19885;42.208;24.952;2023-02-28T14:41:46;100656.31;;;9.41;100.00
33554;BME280;19885;42.208;24.952;2023-02-28T14:44:19;100668.31;;;9.36;100.00
33554;BME280;19885;42.208;24.952;2023-02-28T14:46:49;100660.69;;;9.42;100.00
33554;BME280;19885;42.208;24.952;2023-02-28T14:49:36;100653.69;;;9.40;100.00
33554;BME280;19885;42.208;24.952;2023-02-28T14:52:19;100652.09;;;9.46;100.00
33554;BME280;19885;42.208;24.952;2023-02-28T14:54:46;100658.34;;;9.54;100.00
33554;BME280;19885;42.208;24.952;2023-02-28T14:57:26;100666.66;;;9.38;100.00
33554;BME280;19885;42.208;24.952;2023-02-28T15:00:15;100618.84;;;8.99;100.00
33554;BME280;19885;42.208;24.952;2023-02-28T15:02:41;100672.78;;;9.40;100.00
33554;BME280;19885;42.208;24.952;2023-02-28T15:05:18;100679.34;;;9.26;100.00
33554;BME280;19885;42.208;24.952;2023-02-28T15:07:46;100675.84;;;9.24;100.00
33554;BME280;19885;42.208;24.952;2023-02-28T15:10:24;100687.03;;;8.89;100.00
33554;BME280;19885;42.208;24.952;2023-02-28T15:13:06;100695.63;;;8.86;100.00
33554;BME280;19885;42.208;24.952;2023-02-28T15:18:05;100694.78;;;8.86;100.00
33554;BME280;19885;42.208;24.952;2023-02-28T15:20:33;100705.84;;;8.79;100.00
33554;BME280;19885;42.208;24.952;2023-02-28T15:23:01;100705.63;;;8.71;100.00
33554;BME280;19885;42.208;24.952;2023-02-28T15:25:27;100705.34;;;8.62;100.00